Latest Weather Observations for Narrandera Airport

IDN60801

Issued at 9:02 pm EDT Wednesday 1 April 2015 (issued every 30 minutes, with the page automatically refreshed every 10 minutes)

About weather observations | Map of weather stations | Latest weather observations for NSW | Other Formats
Station Details ID: 074148 Name: NARRANDERA AIRPORT AWS Lat: -34.70 Lon: 146.51 Height: 145.0 m
Data from the previous 72 hours. | See also: Recent months for locations in New South Wales
Date/Time
EDT
Temp
°C
App
Temp
°C
Dew
Point
Rel
Hum
%
Delta-T
°C
Wind Press
QNH
hPa
Press
MSL
hPa
Rain
since 9 am
mm
Dir
 
Spd
km/h
Gust
km/h
Spd
kts
Gust
kts
01/09:00pm 21.1 20.8 8.7 45 6.6 CALM 0 0 0 0 1016.9 1016.6 0.0
01/08:30pm 22.7 22.2 7.7 38 7.9 CALM 0 0 0 0 1016.8 1016.5 0.0
01/08:00pm 23.7 22.1 8.9 39 8.0 NE 7 7 4 4 1016.6 1016.3 0.0
01/07:30pm 25.9 23.4 8.4 33 9.5 N 11 11 6 6 1016.6 1016.3 0.0
01/07:00pm 27.7 24.6 9.0 31 10.3 N 15 19 8 10 1016.5 1016.2 0.0
01/06:30pm 28.7 25.9 9.9 31 10.6 NNW 15 19 8 10 1016.6 1016.3 0.0
01/06:00pm 28.8 25.9 9.5 30 10.8 N 15 20 8 11 1016.6 1016.3 0.0
01/05:30pm 28.9 26.4 9.6 30 10.8 NNE 13 22 7 12 1016.7 1016.4 0.0
01/05:00pm 29.4 25.7 9.5 29 11.2 NNW 19 26 10 14 1016.8 1016.5 0.0
01/04:30pm 28.9 26.0 9.6 30 10.8 N 15 20 8 11 1016.9 1016.6 0.0
01/04:00pm 29.7 26.8 9.8 29 11.2 NNE 15 24 8 13 1017.0 1016.7 0.0
01/03:30pm 29.8 28.8 10.4 30 11.1 NNW 6 13 3 7 1017.3 1017.0 0.0
01/03:00pm 29.5 27.1 10.1 30 11.0 N 13 26 7 14 1017.8 1017.5 0.0
01/02:30pm 28.3 25.4 9.6 31 10.5 NNE 15 24 8 13 1018.4 1018.1 0.0
01/02:00pm 29.4 26.2 10.0 30 11.0 N 17 26 9 14 1018.9 1018.6 0.0
01/01:30pm 28.7 25.5 9.9 31 10.6 N 17 32 9 17 1019.4 1019.1 0.0
01/01:00pm 28.8 26.3 10.9 33 10.2 N 15 26 8 14 1020.1 1019.8 0.0
01/12:30pm 27.9 25.5 11.5 36 9.5 NNE 15 24 8 13 1020.8 1020.5 0.0
01/12:00pm 26.7 24.0 11.6 39 8.7 NNE 17 28 9 15 1021.3 1021.0 0.0
01/11:30am 26.0 22.9 11.7 41 8.2 NNE 19 26 10 14 1021.7 1021.4 0.0
01/11:00am 24.7 21.5 12.0 45 7.3 N 20 28 11 15 1022.1 1021.8 0.0
01/10:30am 23.1 19.9 11.8 49 6.4 NNE 20 28 11 15 1022.4 1021.9 0.0
01/10:00am 22.5 19.3 11.9 51 6.0 NE 20 26 11 14 1022.8 1022.3 0.0
01/09:30am 20.5 17.8 11.7 57 4.9 NE 17 20 9 11 1022.8 1022.3 0.0
01/09:00am 19.0 16.2 11.3 61 4.2 ENE 17 20 9 11 1022.9 1022.4 0.0
01/08:30am 17.7 15.3 11.3 66 3.5 ENE 15 17 8 9 1022.8 1022.3 0.0
01/08:00am 16.3 13.8 11.0 71 2.8 ENE 15 17 8 9 1022.5 1022.0 0.0
01/07:30am 16.0 13.8 10.7 71 2.8 ENE 13 17 7 9 1022.4 1021.9 0.0
01/07:00am 16.2 14.3 10.5 69 3.0 ENE 11 17 6 9 1022.2 1021.7 0.0
01/06:30am 16.7 14.0 10.5 67 3.3 ENE 15 19 8 10 1022.0 1021.4 0.0
01/06:00am 17.2 14.6 10.6 65 3.5 E 15 20 8 11 1021.8 1021.2 0.0
01/05:30am 17.6 15.0 10.7 64 3.7 E 15 19 8 10 1021.7 1021.1 0.0
01/05:00am 17.5 15.2 10.6 64 3.7 E 13 15 7 8 1021.9 1021.3 0.0
01/04:30am 17.3 15.0 10.4 64 3.7 E 13 17 7 9 1021.9 1021.3 0.0
01/04:00am 17.0 14.5 9.7 62 3.8 SE 13 15 7 8 1022.1 1021.5 0.0
01/03:30am 18.9 16.9 10.2 57 4.7 ENE 11 17 6 9 1022.3 1021.8 0.0
01/03:00am 18.9 16.1 9.9 56 4.8 ENE 15 19 8 10 1022.3 1021.8 0.0
01/02:30am 19.5 16.7 10.0 54 5.1 NE 15 20 8 11 1022.5 1022.0 0.0
01/02:00am 20.1 16.9 9.9 52 5.5 ENE 17 26 9 14 1022.8 1022.3 0.0
01/01:30am 20.4 17.1 9.6 50 5.8 ENE 17 20 9 11 1022.8 1022.3 0.0
01/01:00am 21.0 17.3 9.3 47 6.3 ENE 19 24 10 13 1022.8 1022.3 0.0
01/12:30am 21.1 17.6 8.7 45 6.6 E 17 24 9 13 1023.0 1022.5 0.0
01/12:00am 21.4 17.7 8.0 42 7.0 E 17 20 9 11 1023.2 1022.7 0.0
 
Date/Time
EDT
Temp
°C
App
Temp
°C
Dew
Point
Rel
Hum
%
Delta-T
°C
Wind Press
QNH
hPa
Press
MSL
hPa
Rain
since 9 am
mm
Dir
 
Spd
km/h
Gust
km/h
Spd
kts
Gust
kts
31/11:30pm 22.0 17.8 7.4 39 7.6 E 19 24 10 13 1023.2 1022.7 0.0
31/11:00pm 22.8 19.0 7.4 37 8.0 E 17 20 9 11 1023.0 1022.5 0.0
31/10:30pm 22.3 18.9 7.7 39 7.7 E 15 17 8 9 1022.7 1022.2 0.0
31/10:00pm 22.0 18.6 7.8 40 7.4 E 15 17 8 9 1022.5 1022.0 0.0
31/09:30pm 21.6 18.6 7.8 41 7.2 E 13 15 7 8 1022.4 1021.9 0.0
31/09:00pm 21.7 19.2 8.2 42 7.1 ESE 11 11 6 6 1022.2 1021.7 0.0
31/08:30pm 22.7 21.1 8.8 41 7.5 SE 7 9 4 5 1022.2 1021.7 0.0
31/08:00pm 23.0 20.7 7.5 37 8.1 ESE 9 11 5 6 1021.8 1021.2 0.0
31/07:30pm 24.6 22.2 6.8 32 9.3 E 9 13 5 7 1021.4 1020.8 0.0
31/07:00pm 27.5 25.3 7.9 29 10.6 ENE 9 13 5 7 1021.2 1020.6 0.0
31/06:30pm 28.7 25.7 7.9 27 11.4 ENE 13 19 7 10 1021.1 1020.5 0.0
31/06:00pm 29.1 25.7 7.6 26 11.7 ENE 15 22 8 12 1020.8 1020.2 0.0
31/05:30pm 29.4 26.7 7.3 25 12.0 E 11 20 6 11 1020.8 1020.2 0.0
31/05:00pm 29.8 25.5 7.1 24 12.3 ENE 19 26 10 14 1020.9 1020.3 0.0
31/04:30pm 29.4 26.7 7.3 25 12.0 SE 11 19 6 10 1021.1 1020.5 0.0
31/04:00pm 29.6 26.6 7.5 25 12.0 ESE 13 19 7 10 1021.4 1020.8 0.0
31/03:30pm 28.9 25.3 6.9 25 11.8 ESE 15 26 8 14 1021.9 1021.3 0.0
31/03:00pm 28.8 25.0 7.4 26 11.5 ESE 17 20 9 11 1022.5 1022.0 0.0
31/02:30pm 28.8 25.5 7.9 27 11.4 SSW 15 26 8 14 1022.9 1022.4 0.0
31/02:00pm 27.8 25.2 7.6 28 10.9 SE 11 26 6 14 1023.6 1023.1 0.0
31/01:30pm 27.7 24.3 7.5 28 10.9 ESE 15 24 8 13 1024.1 1023.6 0.0
31/01:00pm 27.9 24.2 6.1 25 11.4 ESE 15 26 8 14 1024.7 1024.2 0.0
31/12:30pm 27.0 22.9 6.4 27 10.9 SE 17 22 9 12 1025.1 1024.6 0.0
31/12:00pm 26.9 23.7 6.9 28 10.6 E 13 20 7 11 1025.7 1025.2 0.0
31/11:30am 25.4 22.2 8.4 34 9.2 E 15 20 8 11 1025.8 1025.3 0.0
31/11:00am 24.6 21.0 8.5 36 8.6 ENE 17 22 9 12 1026.1 1025.6 0.0
31/10:30am 23.4 19.8 8.3 38 8.1 E 17 22 9 12 1026.2 1025.7 0.0
31/10:00am 22.2 19.2 7.6 39 7.6 E 13 20 7 11 1026.3 1025.8 0.0
31/09:30am 20.2 16.5 6.5 41 6.9 E 15 20 8 11 1026.1 1025.6 0.0
31/09:00am 18.8 15.6 5.3 41 6.6 E 11 13 6 7 1025.8 1025.3 0.0
31/08:30am 16.7 14.3 4.1 43 5.9 ESE 6 9 3 5 1025.4 1024.9 0.0
31/08:00am 14.5 12.0 4.5 51 4.6 ESE 7 9 4 5 1025.1 1024.6 0.0
31/07:30am 11.6 8.6 4.1 60 3.4 ESE 9 11 5 6 1024.8 1024.3 0.0
31/07:00am 10.9 7.7 3.0 58 3.4 ESE 9 11 5 6 1024.5 1024.0 0.0
31/06:30am 11.4 8.6 2.9 56 3.7 ESE 7 9 4 5 1024.2 1023.7 0.0
31/06:00am 11.6 8.5 3.6 58 3.6 E 9 11 5 6 1023.9 1023.4 0.0
31/05:30am 10.7 7.5 3.0 59 3.4 ESE 9 11 5 6 1023.9 1023.4 0.0
31/05:00am 11.2 8.1 3.5 59 3.4 ESE 9 13 5 7 1023.9 1023.4 0.0
31/04:30am 10.2 7.7 3.5 63 2.9 S 6 7 3 4 1023.8 1023.3 0.0
31/04:00am 10.3 8.7 2.7 59 3.3 CALM 0 0 0 0 1023.8 1023.3 0.0
31/03:30am 10.4 8.7 1.8 55 3.6 CALM 0 0 0 0 1023.8 1023.3 0.0
31/03:00am 11.6 10.0 2.4 53 4.0 CALM 0 0 0 0 1024.0 1023.5 0.0
31/02:30am 11.8 9.7 1.4 49 4.4 SSE 2 6 1 3 1024.1 1023.6 0.0
31/02:00am 13.4 10.2 2.9 49 4.7 SE 9 11 5 6 1024.4 1023.9 0.0
31/01:30am 12.2 10.2 2.4 51 4.3 SSE 2 6 1 3 1024.4 1023.9 0.0
31/01:00am 11.9 10.3 2.6 53 4.1 CALM 0 0 0 0 1024.3 1023.8 0.0
31/12:30am 12.4 10.9 3.1 53 4.1 CALM 0 0 0 0 1024.3 1023.8 0.0
31/12:00am 13.1 11.5 2.6 49 4.6 CALM 0 0 0 0 1024.4 1023.9 0.0
 
Date/Time
EDT
Temp
°C
App
Temp
°C
Dew
Point
Rel
Hum
%
Delta-T
°C
Wind Press
QNH
hPa
Press
MSL
hPa
Rain
since 9 am
mm
Dir
 
Spd
km/h
Gust
km/h
Spd
kts
Gust
kts
30/11:30pm 13.3 11.8 2.8 49 4.7 CALM 0 0 0 0 1024.5 1024.0 0.0
30/11:00pm 14.2 11.3 2.5 45 5.2 SSE 7 9 4 5 1024.4 1023.9 0.0
30/10:30pm 14.6 13.2 3.4 47 5.1 CALM 0 0 0 0 1024.3 1023.8 0.0
30/10:00pm 15.2 13.8 3.7 46 5.3 CALM 0 0 0 0 1024.1 1023.6 0.0
30/09:30pm 16.8 15.1 1.7 36 6.8 CALM 0 0 0 0 1024.1 1023.6 0.0
30/09:00pm 17.7 16.0 1.7 34 7.2 CALM 0 0 0 0 1024.0 1023.5 0.0
30/08:30pm 19.0 17.2 1.5 31 8.0 CALM 0 0 0 0 1023.7 1023.2 0.0
30/08:00pm 20.0 17.7 0.5 27 8.7 SSE 2 7 1 4 1023.4 1022.9 0.0
30/07:30pm 22.9 19.8 1.3 24 10.1 SSW 7 9 4 5 1023.1 1022.6 0.0
30/07:00pm 25.4 21.2 1.5 21 11.4 SW 13 17 7 9 1022.7 1022.2 0.0
30/06:30pm 26.8 22.3 2.0 20 12.1 SW 15 24 8 13 1022.5 1022.0 0.0
30/06:00pm 27.6 23.6 2.6 20 12.3 SSW 13 19 7 10 1022.2 1021.7 0.0
30/05:30pm 28.0 25.7 3.0 20 12.5 W 4 9 2 5 1022.0 1021.4 0.0
30/05:00pm 27.4 23.3 2.5 20 12.2 SW 13 20 7 11 1021.8 1021.2 0.0
30/04:30pm 28.0 24.3 2.2 19 12.7 WNW 11 20 6 11 1021.8 1021.2 0.0
30/04:00pm 28.0 25.5 3.7 21 12.2 SW 6 13 3 7 1021.9 1021.3 0.0
30/03:30pm 27.6 24.6 4.0 22 12.0 WNW 9 19 5 10 1022.2 1021.7 0.0
30/03:00pm 27.9 25.5 4.2 22 12.0 S 6 13 3 7 1022.4 1021.9 0.0
30/02:30pm 26.6 22.8 3.8 23 11.4 SSW 13 19 7 10 1022.8 1022.3 0.0
30/02:00pm 26.1 23.3 3.4 23 11.2 E 7 13 4 7 1023.2 1022.7 0.0
30/01:30pm 25.5 22.6 4.6 26 10.6 SSW 9 13 5 7 1023.6 1023.1 0.0
30/01:00pm 25.6 22.3 4.7 26 10.6 NNE 11 17 6 9 1024.0 1023.5 0.0
30/12:30pm 25.4 23.5 5.1 27 10.4 NNE 4 11 2 6 1024.4 1023.9 0.0
30/12:00pm 24.7 22.4 5.5 29 9.8 NE 7 13 4 7 1025.0 1024.5 0.0
30/11:30am 23.4 21.0 5.3 31 9.1 E 7 13 4 7 1025.3 1024.8 0.0
30/11:00am 23.1 19.7 6.0 33 8.7 NE 13 17 7 9 1025.5 1025.0 0.0
30/10:30am 22.8 19.4 5.7 33 8.7 ENE 13 19 7 10 1025.5 1025.0 0.0
30/10:00am 21.5 18.1 5.8 36 7.9 ENE 13 17 7 9 1025.4 1024.9 0.0
30/09:30am 20.3 17.7 5.9 39 7.2 E 9 13 5 7 1025.3 1024.8 0.0
30/09:00am 18.8 16.6 6.3 44 6.2 E 7 11 4 6 1025.1 1024.6 0.0
30/08:30am 16.9 14.7 6.4 50 5.2 ESE 7 9 4 5 1024.7 1024.2 0.0
30/08:00am 15.1 14.2 5.9 54 4.4 CALM 0 6 0 3 1024.5 1024.0 0.0
30/07:30am 14.5 13.1 5.6 55 4.3 E 2 7 1 4 1024.3 1023.8 0.0
30/07:00am 14.4 13.5 6.0 57 4.0 CALM 0 0 0 0 1024.1 1023.6 0.0
30/06:30am 14.6 13.6 5.7 55 4.3 CALM 0 6 0 3 1023.8 1023.3 0.0
30/06:00am 14.4 12.2 6.3 58 3.9 ESE 7 9 4 5 1023.4 1022.9 0.0
30/05:30am 14.0 13.1 5.9 58 3.9 CALM 0 0 0 0 1023.1 1022.6 0.0
30/05:00am 14.2 13.1 5.3 55 4.2 CALM 0 0 0 0 1023.0 1022.5 0.0
30/04:30am 14.1 13.0 5.2 55 4.2 CALM 0 0 0 0 1022.7 1022.2 0.0
30/04:00am 13.9 12.9 5.5 57 4.0 CALM 0 0 0 0 1022.7 1022.2 0.0
30/03:30am 13.8 12.9 6.2 60 3.7 CALM 0 0 0 0 1022.7 1022.2 0.0
30/03:00am 13.7 12.7 5.8 59 3.7 CALM 0 0 0 0 1022.8 1022.3 0.0
30/02:30am 13.4 12.4 5.6 59 3.7 CALM 0 0 0 0 1023.1 1022.6 0.0
30/02:00am 13.3 12.3 5.5 59 3.7 CALM 0 0 0 0 1023.0 1022.5 0.0
30/01:30am 13.4 12.3 5.3 58 3.8 CALM 0 0 0 0 1023.2 1022.7 0.0
30/01:00am 13.1 12.1 5.5 60 3.6 CALM 0 6 0 3 1023.2 1022.7 0.0
30/12:30am 13.0 11.9 4.9 58 3.8 CALM 0 0 0 0 1023.3 1022.8 0.0
30/12:00am 12.7 11.5 4.7 58 3.7 CALM 0 0 0 0 1023.7 1023.2 0.0
 
Date/Time
EDT
Temp
°C
App
Temp
°C
Dew
Point
Rel
Hum
%
Delta-T
°C
Wind Press
QNH
hPa
Press
MSL
hPa
Rain
since 9 am
mm
Dir
 
Spd
km/h
Gust
km/h
Spd
kts
Gust
kts
29/11:30pm 14.0 13.0 5.6 57 4.0 CALM 0 0 0 0 1023.9 1023.4 0.0
29/11:00pm 13.9 12.9 5.5 57 4.0 CALM 0 0 0 0 1024.0 1023.5 0.0
29/10:30pm 14.3 13.3 5.4 55 4.2 CALM 0 0 0 0 1024.1 1023.6 0.0
29/10:00pm 15.0 14.0 5.8 54 4.4 CALM 0 0 0 0 1024.1 1023.6 0.0
29/09:30pm 15.5 14.6 6.0 53 4.6 CALM 0 0 0 0 1023.9 1023.4 0.0

Other Formats:

Comma delimited format used in spreadsheet applications
http://www.bom.gov.au/fwo/IDN60801/IDN60801.95706.axf

JavaScript Object Notation format (JSON) in row-major order
http://www.bom.gov.au/fwo/IDN60801/IDN60801.95706.json